Portada
METAR-TAF:

METAR-TAF

Aeroports :

Estocolm-Arlanda, Suècia

latitud: 59-39N, longitud: 017-57E, altitud: 38 m

Observació

L'informe es va fer fa 37 minuts, a les 12:50 UTC
Vent 5 kt del Sud-Oest
Temperatura 25°C
Humitat 21%
Pressió 1027 hPa
Visibilitat 10 km o més
sense núvols per sota de 1500 mi sense presència de cumulonimbus.

METAR: ESSA 261250Z 22005KT CAVOK 25/01 Q1027 NOSIG

Hora: 15:27 (13:27 UTC)

Pronòstic

L'informe es va fer fa 1 hora i 57 minuts, a les 11:30 UTC
Pronòstic vàlid del 26 a les 12 UTC al 27 a les 12 UTC
Vent 3 kt del Sud-Oest
Visibilitat 10 km o més
sense núvols per sota de 1500 mi sense presència de cumulonimbus.
Evolucionant progressivament
l' 26 a les 15 UTC al 26 a les 18 UTC
Vent 10 kt del Nord/Nord-Est

TAF: ESSA 261130Z 2612/2712 22003KT CAVOK BECMG 2615/2618 03010KT

Observacions i pronòstics meteorològics de més de 4000 aeroports (METAR i TAF).

Les estacions disponibles són els punts grocs i vermells al mapa.

Posi el ratolí al punt desitjat per veure el nom de l'estació.

Feu clic per veure les observacions i els pronòstics meteorològics.

Per canviar el mapa: feu clic els botons verds amb una creu de color negre per apropar; al botó verd amb un guió per allunyar la imatge; o en les fletxes verdes per a mapes adjacents.


METAR-TAF: